Terminal Aerodrome Forecast
Issued by NWS

Home | Current Version | Previous Version | Text Only | Print | Product List | Glossary Off
Versions: 1 2 3 4 5 6 7 8 9 10 11 12 13 14

885
FTUS43 KICT 022326
TAFRSL
TAF
KRSL 022326Z 0300/0324 32024G32KT 3SM BLSN VCSH SCT009 OVC012
      TEMPO 0300/0302 1/2SM BLSN FZFG BKN009
     FM030200 32022G30KT P6SM OVC015
     FM030500 33020G28KT P6SM OVC025
     FM030900 32018KT P6SM OVC045
     FM031400 32013KT P6SM SCT250=

USA.gov is the U.S. government's official web portal to all federal, state and local government web resources and services.